createdAt,value
2017-12-03T00:00:54.743Z,25.50
2017-12-03T00:03:22.413Z,21.90
2017-12-03T00:05:50.069Z,22.87
2017-12-03T00:08:17.681Z,24.73
2017-12-03T00:10:45.357Z,24.20
2017-12-03T00:13:12.972Z,24.37
2017-12-03T00:15:41.370Z,24.42
2017-12-03T00:18:09.022Z,22.87
2017-12-03T00:20:36.685Z,23.70
2017-12-03T00:23:04.596Z,22.60
2017-12-03T00:25:32.419Z,24.30
2017-12-03T00:28:00.824Z,26.60
2017-12-03T00:30:28.442Z,14.50
2017-12-03T00:32:56.105Z,25.10
2017-12-03T00:35:23.725Z,22.58
2017-12-03T00:37:51.337Z,26.00
2017-12-03T00:40:19.029Z,24.00
2017-12-03T00:42:46.787Z,23.37
2017-12-03T00:45:14.474Z,24.53
2017-12-03T00:47:42.093Z,22.90
2017-12-03T00:50:09.753Z,25.35
2017-12-03T00:52:37.377Z,23.70
2017-12-03T00:55:05.045Z,21.57
2017-12-03T00:57:32.709Z,22.80
2017-12-03T01:00:01.089Z,22.20
2017-12-03T01:02:29.673Z,24.60
2017-12-03T01:04:57.321Z,24.20
2017-12-03T01:07:25.352Z,25.00
2017-12-03T01:09:52.996Z,19.15
2017-12-03T01:12:20.673Z,22.80
2017-12-03T01:14:48.315Z,24.80
2017-12-03T01:17:16.005Z,22.52
2017-12-03T01:19:43.697Z,21.90
2017-12-03T01:22:11.321Z,22.63
2017-12-03T01:24:38.980Z,19.90
2017-12-03T01:27:06.740Z,22.75
2017-12-03T01:29:34.383Z,20.90
2017-12-03T01:32:02.277Z,22.57
2017-12-03T01:34:29.905Z,24.17
2017-12-03T01:36:57.573Z,22.93
2017-12-03T01:39:25.205Z,21.53
2017-12-03T01:41:52.882Z,22.63
2017-12-03T01:44:20.524Z,22.57
2017-12-03T01:46:48.190Z,23.20
2017-12-03T01:49:15.886Z,23.30
2017-12-03T01:51:43.539Z,19.73
2017-12-03T01:54:11.209Z,22.80
2017-12-03T01:56:38.891Z,20.62
2017-12-03T01:59:06.579Z,22.50
2017-12-03T02:01:34.245Z,22.23
2017-12-03T02:04:01.873Z,22.75
2017-12-03T02:06:29.717Z,23.87
2017-12-03T02:08:57.415Z,22.50
2017-12-03T02:11:25.825Z,22.00
2017-12-03T02:13:53.449Z,22.67
2017-12-03T02:16:21.323Z,19.35
2017-12-03T02:18:48.957Z,21.17
2017-12-03T02:21:16.659Z,23.10
2017-12-03T02:23:44.309Z,22.97
2017-12-03T02:26:11.964Z,22.62
2017-12-03T02:28:39.597Z,22.50
2017-12-03T02:31:08.040Z,20.90
2017-12-03T02:33:35.707Z,22.83
2017-12-03T02:36:03.414Z,21.60
2017-12-03T02:38:31.066Z,21.15
2017-12-03T02:40:58.738Z,19.60
2017-12-03T02:43:27.140Z,18.63
2017-12-03T02:45:55.239Z,17.97
2017-12-03T02:48:22.938Z,20.53
2017-12-03T02:50:50.651Z,20.03
2017-12-03T02:53:18.437Z,19.00
2017-12-03T02:55:46.904Z,17.55
2017-12-03T02:58:14.581Z,18.10
2017-12-03T03:00:42.242Z,19.40
2017-12-03T03:03:10.177Z,18.70
2017-12-03T03:05:37.842Z,17.93
2017-12-03T03:08:05.639Z,15.60
2017-12-03T03:10:33.757Z,17.67
2017-12-03T03:13:01.632Z,18.73
2017-12-03T03:15:29.329Z,19.30
2017-12-03T03:17:56.966Z,17.20
2017-12-03T03:20:26.452Z,17.08
2017-12-03T03:22:54.136Z,18.55
2017-12-03T03:25:21.819Z,16.70
2017-12-03T03:27:49.517Z,17.73
2017-12-03T03:30:17.427Z,18.25
2017-12-03T03:32:45.115Z,15.10
2017-12-03T03:35:12.816Z,14.50
2017-12-03T03:37:40.490Z,15.60
2017-12-03T03:40:08.173Z,14.95
2017-12-03T03:42:35.869Z,15.07
2017-12-03T03:45:03.518Z,14.77
2017-12-03T03:47:31.209Z,14.63
2017-12-03T03:49:58.840Z,14.70
2017-12-03T03:52:26.591Z,16.57
2017-12-03T03:54:54.438Z,15.50
2017-12-03T03:57:22.201Z,13.07
2017-12-03T03:59:49.858Z,14.80
2017-12-03T04:02:17.696Z,14.70
2017-12-03T04:04:45.395Z,14.95
2017-12-03T04:07:13.068Z,15.17
2017-12-03T04:09:40.690Z,15.87
2017-12-03T04:12:08.880Z,13.77
2017-12-03T04:14:36.497Z,13.93
2017-12-03T04:17:04.945Z,14.60
2017-12-03T04:19:33.357Z,14.27
2017-12-03T04:22:01.089Z,14.73
2017-12-03T04:24:28.782Z,14.27
2017-12-03T04:26:56.424Z,14.52
2017-12-03T04:29:24.090Z,14.40
2017-12-03T04:31:52.514Z,14.93
2017-12-03T04:34:20.301Z,13.80
2017-12-03T04:36:47.980Z,13.17
2017-12-03T04:39:16.613Z,14.90
2017-12-03T04:41:44.349Z,12.85
2017-12-03T04:44:13.015Z,12.93
2017-12-03T04:46:41.527Z,10.10
2017-12-03T04:49:09.174Z,13.10
2017-12-03T04:51:37.638Z,12.10
2017-12-03T04:54:05.333Z,13.30
2017-12-03T04:56:33.042Z,10.80
2017-12-03T04:59:00.706Z,11.70
2017-12-03T05:01:28.421Z,12.30
2017-12-03T05:03:56.082Z,12.93
2017-12-03T05:06:23.785Z,11.77
2017-12-03T05:08:51.540Z,11.38
2017-12-03T05:11:19.262Z,12.77
2017-12-03T05:13:46.984Z,12.50
2017-12-03T05:16:15.597Z,12.48
2017-12-03T05:18:43.249Z,11.57
2017-12-03T05:21:11.773Z,10.32
2017-12-03T05:23:39.442Z,11.40
2017-12-03T05:26:07.499Z,10.63
2017-12-03T05:28:35.482Z,9.35
2017-12-03T05:31:03.242Z,11.95
2017-12-03T05:33:30.910Z,11.27
2017-12-03T05:35:58.616Z,10.38
2017-12-03T05:38:26.969Z,10.40
2017-12-03T05:40:54.669Z,9.45
2017-12-03T05:43:23.125Z,10.68
2017-12-03T05:45:50.830Z,10.50
2017-12-03T05:48:18.506Z,11.05
2017-12-03T05:50:46.917Z,11.25
2017-12-03T05:53:15.349Z,9.80
2017-12-03T05:55:42.998Z,9.70
2017-12-03T05:58:11.434Z,9.18
2017-12-03T06:00:39.906Z,10.13
2017-12-03T06:03:07.594Z,11.32
2017-12-03T06:05:35.276Z,9.83
2017-12-03T06:08:02.938Z,10.70
2017-12-03T06:10:31.676Z,11.64
2017-12-03T06:12:59.382Z,10.63
2017-12-03T06:15:27.090Z,9.70
2017-12-03T06:17:54.759Z,10.80
2017-12-03T06:20:23.608Z,10.30
2017-12-03T06:22:51.346Z,9.10
2017-12-03T06:25:19.012Z,10.00
2017-12-03T06:27:46.719Z,10.50
2017-12-03T06:30:14.379Z,10.20
2017-12-03T06:32:42.031Z,10.50
2017-12-03T06:35:10.046Z,9.80
2017-12-03T06:37:37.709Z,10.77
2017-12-03T06:40:05.781Z,11.20
2017-12-03T06:42:33.457Z,12.13
2017-12-03T06:45:01.085Z,10.77
2017-12-03T06:47:30.186Z,9.70
2017-12-03T06:49:57.846Z,10.40
2017-12-03T06:52:26.294Z,11.50
2017-12-03T06:54:54.861Z,11.53
2017-12-03T06:57:22.625Z,11.20
2017-12-03T06:59:50.341Z,11.00
2017-12-03T07:02:18.009Z,12.90
2017-12-03T07:04:45.874Z,11.30
2017-12-03T07:07:13.677Z,12.73
2017-12-03T07:09:41.328Z,12.17
2017-12-03T07:12:09.001Z,12.37
2017-12-03T07:14:36.689Z,12.43
2017-12-03T07:17:06.043Z,11.40
2017-12-03T07:19:33.772Z,11.23
2017-12-03T07:22:01.489Z,11.27
2017-12-03T07:24:29.150Z,12.05
2017-12-03T07:26:57.018Z,11.82
2017-12-03T07:29:25.080Z,11.52
2017-12-03T07:31:52.944Z,11.93
2017-12-03T07:34:20.647Z,12.30
2017-12-03T07:36:50.560Z,11.17
2017-12-03T07:39:20.098Z,11.63
2017-12-03T07:41:47.853Z,12.05
2017-12-03T07:44:15.574Z,8.30
2017-12-03T07:46:43.337Z,11.67
2017-12-03T07:49:11.261Z,12.55
2017-12-03T07:51:38.991Z,13.27
2017-12-03T07:54:07.688Z,11.00
2017-12-03T07:56:35.388Z,11.63
2017-12-03T07:59:03.069Z,10.85
2017-12-03T08:01:30.769Z,12.63
2017-12-03T08:03:58.410Z,12.23
2017-12-03T08:06:26.870Z,11.43
2017-12-03T08:08:55.325Z,12.57
2017-12-03T08:11:23.034Z,13.02
2017-12-03T08:13:50.751Z,11.40
2017-12-03T08:16:18.493Z,11.43
2017-12-03T08:18:46.205Z,12.20
2017-12-03T08:21:14.713Z,12.13
2017-12-03T08:23:42.405Z,12.77
2017-12-03T08:26:10.091Z,11.10
2017-12-03T08:28:38.074Z,10.37
2017-12-03T08:31:05.969Z,12.13
2017-12-03T08:33:33.758Z,11.20
2017-12-03T08:36:01.460Z,12.00
2017-12-03T08:38:30.347Z,12.52
2017-12-03T08:40:58.009Z,12.63
2017-12-03T08:43:25.731Z,11.50
2017-12-03T08:45:53.442Z,12.67
2017-12-03T08:48:21.871Z,12.52
2017-12-03T08:50:49.592Z,9.87
2017-12-03T08:53:17.310Z,12.07
2017-12-03T08:55:44.990Z,10.80
2017-12-03T08:58:12.694Z,12.03
2017-12-03T09:00:40.357Z,12.60
2017-12-03T09:03:08.068Z,13.70
2017-12-03T09:05:35.713Z,12.30
2017-12-03T09:08:03.448Z,11.80
2017-12-03T09:10:31.231Z,12.10
2017-12-03T09:12:58.977Z,12.87
2017-12-03T09:15:26.677Z,13.13
2017-12-03T09:17:54.573Z,12.70
2017-12-03T09:20:29.254Z,11.77
2017-12-03T09:22:59.482Z,12.75
2017-12-03T09:25:27.205Z,12.85
2017-12-03T09:27:54.961Z,8.80
2017-12-03T09:30:22.669Z,11.20
2017-12-03T09:32:50.460Z,12.53
2017-12-03T09:35:19.105Z,12.52
2017-12-03T09:37:46.957Z,12.13
2017-12-03T09:40:14.622Z,12.20
2017-12-03T09:42:42.464Z,11.40
2017-12-03T09:45:10.182Z,12.35
2017-12-03T09:47:37.869Z,11.80
2017-12-03T09:50:05.578Z,10.60
2017-12-03T09:52:33.291Z,11.50
2017-12-03T09:55:00.978Z,10.60
2017-12-03T09:57:28.672Z,11.50
2017-12-03T09:59:56.381Z,11.52
2017-12-03T10:02:24.092Z,11.30
2017-12-03T10:04:51.806Z,10.57
2017-12-03T10:07:19.723Z,10.83
2017-12-03T10:09:47.481Z,11.10
2017-12-03T10:12:17.669Z,10.87
2017-12-03T10:14:45.608Z,10.93
2017-12-03T10:17:13.330Z,10.90
2017-12-03T10:19:40.996Z,10.60
2017-12-03T10:22:08.663Z,10.65
2017-12-03T10:24:38.045Z,9.85
2017-12-03T10:27:06.436Z,10.73
2017-12-03T10:29:34.145Z,10.73
2017-12-03T10:32:02.493Z,9.90
2017-12-03T10:34:31.151Z,10.07
2017-12-03T10:36:58.842Z,9.10
2017-12-03T10:39:26.561Z,10.13
2017-12-03T10:41:54.216Z,10.03
2017-12-03T10:44:21.893Z,10.87
2017-12-03T10:46:49.598Z,10.40
2017-12-03T10:49:17.749Z,10.93
2017-12-03T10:51:45.827Z,9.84
2017-12-03T10:54:13.481Z,10.67
2017-12-03T10:56:41.205Z,9.13
2017-12-03T10:59:08.913Z,11.70
2017-12-03T11:01:37.529Z,12.20
2017-12-03T11:04:05.190Z,11.17
2017-12-03T11:06:32.857Z,13.17
2017-12-03T11:09:00.922Z,11.15
2017-12-03T11:11:28.542Z,14.40
2017-12-03T11:13:57.141Z,12.88
2017-12-03T11:16:24.997Z,12.40
2017-12-03T11:18:54.283Z,12.60
2017-12-03T11:21:22.042Z,11.93
2017-12-03T11:23:49.873Z,13.60
2017-12-03T11:26:17.550Z,13.00
2017-12-03T11:28:45.170Z,14.30
2017-12-03T11:31:12.854Z,14.00
2017-12-03T11:33:40.534Z,13.65
2017-12-03T11:36:08.149Z,12.00
2017-12-03T11:38:35.781Z,14.10
2017-12-03T11:41:04.438Z,14.48
2017-12-03T11:43:32.204Z,13.40
2017-12-03T11:45:59.816Z,13.30
2017-12-03T11:48:27.478Z,13.38
2017-12-03T11:50:55.202Z,13.00
2017-12-03T11:53:25.265Z,13.07
2017-12-03T11:55:52.874Z,14.97
2017-12-03T11:58:20.497Z,14.77
2017-12-03T12:00:48.161Z,17.30
2017-12-03T12:03:15.825Z,15.30
2017-12-03T12:05:43.442Z,16.83
2017-12-03T12:08:11.069Z,15.80
2017-12-03T12:10:38.724Z,15.83
2017-12-03T12:13:07.960Z,15.23
2017-12-03T12:15:35.604Z,16.95
2017-12-03T12:18:03.990Z,18.10
2017-12-03T12:20:31.689Z,17.35
2017-12-03T12:22:59.300Z,17.63
2017-12-03T12:25:26.986Z,18.03
2017-12-03T12:27:54.620Z,19.30
2017-12-03T12:30:22.450Z,19.67
2017-12-03T12:32:50.061Z,19.57
2017-12-03T12:35:18.037Z,19.80
2017-12-03T12:37:45.692Z,19.15
2017-12-03T12:40:13.733Z,19.95
2017-12-03T12:42:42.178Z,20.93
2017-12-03T12:45:09.863Z,22.25
2017-12-03T12:47:37.541Z,21.12
2017-12-03T12:50:05.246Z,21.83
2017-12-03T12:52:33.072Z,22.83
2017-12-03T12:55:01.005Z,17.50
2017-12-03T12:57:28.721Z,21.17
2017-12-03T12:59:56.434Z,20.62
2017-12-03T13:02:24.165Z,21.07
2017-12-03T13:04:52.054Z,21.27
2017-12-03T13:07:19.909Z,21.80
2017-12-03T13:09:47.521Z,20.10
2017-12-03T13:12:15.189Z,22.90
2017-12-03T13:14:43.108Z,20.00
2017-12-03T13:17:10.773Z,18.70
2017-12-03T13:19:38.438Z,20.98
2017-12-03T13:22:06.817Z,19.90
2017-12-03T13:24:35.245Z,20.02
2017-12-03T13:27:02.889Z,19.43
2017-12-03T13:29:31.314Z,21.00
2017-12-03T13:31:58.985Z,18.87
2017-12-03T13:34:26.602Z,18.17
2017-12-03T13:36:54.265Z,20.60
2017-12-03T13:39:21.872Z,20.40
2017-12-03T13:41:49.529Z,18.87
2017-12-03T13:44:17.478Z,20.20
2017-12-03T13:46:45.158Z,19.80
2017-12-03T13:49:14.950Z,21.27
2017-12-03T13:51:42.612Z,22.00
2017-12-03T13:54:10.225Z,21.00
2017-12-03T13:56:38.553Z,18.30
2017-12-03T13:59:06.227Z,18.60
2017-12-03T14:01:34.634Z,18.80
2017-12-03T14:04:03.089Z,18.43
2017-12-03T14:06:31.043Z,17.93
2017-12-03T14:08:58.702Z,18.95
2017-12-03T14:11:26.581Z,17.67
2017-12-03T14:13:54.442Z,17.80
2017-12-03T14:16:22.197Z,16.70
2017-12-03T14:18:49.857Z,18.30
2017-12-03T14:21:18.162Z,16.23
2017-12-03T14:23:46.833Z,16.20
2017-12-03T14:26:14.474Z,17.40
2017-12-03T14:28:42.298Z,18.57
2017-12-03T14:31:09.973Z,17.23
2017-12-03T14:33:37.584Z,18.33
2017-12-03T14:36:05.967Z,17.67
2017-12-03T14:38:34.421Z,17.07
2017-12-03T14:41:02.053Z,18.80
2017-12-03T14:43:29.667Z,21.40
2017-12-03T14:45:57.350Z,19.87
2017-12-03T14:48:25.004Z,19.60
2017-12-03T14:50:52.665Z,19.07
2017-12-03T14:53:20.277Z,19.27
2017-12-03T14:55:47.939Z,20.08
2017-12-03T14:58:15.589Z,20.60
2017-12-03T15:00:43.215Z,19.50
2017-12-03T15:03:10.882Z,21.30
2017-12-03T15:05:38.585Z,20.40
2017-12-03T15:08:06.256Z,20.08
2017-12-03T15:10:33.882Z,21.10
2017-12-03T15:13:02.826Z,20.45
2017-12-03T15:15:30.486Z,19.90
2017-12-03T15:17:59.012Z,22.02
2017-12-03T15:20:26.894Z,22.35
2017-12-03T15:22:54.598Z,20.63
2017-12-03T15:25:22.509Z,20.17
2017-12-03T15:27:50.171Z,19.43
2017-12-03T15:30:17.830Z,20.25
2017-12-03T15:32:45.781Z,20.40
2017-12-03T15:35:13.446Z,21.03
2017-12-03T15:37:41.124Z,19.87
2017-12-03T15:40:08.842Z,21.60
2017-12-03T15:42:36.905Z,20.80
2017-12-03T15:45:04.577Z,22.77
2017-12-03T15:47:32.246Z,21.40
2017-12-03T15:49:59.958Z,22.48
2017-12-03T15:52:28.207Z,20.10
2017-12-03T15:54:56.193Z,20.40
2017-12-03T15:57:23.862Z,18.30
2017-12-03T15:59:51.594Z,19.80
2017-12-03T16:02:19.330Z,19.47
2017-12-03T16:04:47.029Z,19.93
2017-12-03T16:07:14.749Z,18.05
2017-12-03T16:09:42.553Z,16.73
2017-12-03T16:12:10.250Z,19.00
2017-12-03T16:14:37.925Z,16.93
2017-12-03T16:17:05.562Z,16.85
2017-12-03T16:19:33.261Z,18.50
2017-12-03T16:22:00.929Z,15.77
2017-12-03T16:24:28.576Z,17.70
2017-12-03T16:26:56.272Z,18.00
2017-12-03T16:29:23.930Z,16.90
2017-12-03T16:31:51.637Z,19.07
2017-12-03T16:34:19.469Z,17.20
2017-12-03T16:36:47.240Z,17.90
2017-12-03T16:39:14.904Z,17.50
2017-12-03T16:41:42.557Z,15.10
2017-12-03T16:44:10.230Z,15.70
2017-12-03T16:46:38.551Z,14.77
2017-12-03T16:49:06.357Z,15.83
2017-12-03T16:51:34.010Z,14.98
2017-12-03T16:54:01.701Z,13.52
2017-12-03T16:56:29.369Z,13.53
2017-12-03T16:58:57.802Z,14.13
2017-12-03T17:01:25.516Z,13.13
2017-12-03T17:03:53.954Z,13.50
2017-12-03T17:06:21.589Z,13.65
2017-12-03T17:08:49.266Z,13.60
2017-12-03T17:11:16.881Z,11.67
2017-12-03T17:13:44.551Z,13.60
2017-12-03T17:16:12.245Z,12.33
2017-12-03T17:18:40.126Z,13.70
2017-12-03T17:21:07.755Z,12.40
2017-12-03T17:23:35.489Z,12.83
2017-12-03T17:26:03.225Z,12.50
2017-12-03T17:28:31.343Z,11.12
2017-12-03T17:31:00.889Z,11.45
2017-12-03T17:33:28.554Z,9.70
2017-12-03T17:35:58.033Z,11.43
2017-12-03T17:38:25.693Z,11.02
2017-12-03T17:40:53.354Z,9.98
2017-12-03T17:43:20.981Z,9.90
2017-12-03T17:45:48.650Z,9.90
2017-12-03T17:48:17.154Z,10.60
2017-12-03T17:50:44.814Z,8.50
2017-12-03T17:53:12.436Z,9.30
2017-12-03T17:55:40.097Z,9.37
2017-12-03T17:58:07.753Z,8.07
2017-12-03T18:00:36.133Z,8.63
2017-12-03T18:03:03.821Z,8.15
2017-12-03T18:05:31.429Z,8.70
2017-12-03T18:07:59.110Z,7.43
2017-12-03T18:10:26.727Z,7.10
2017-12-03T18:12:54.386Z,7.43
2017-12-03T18:15:22.041Z,7.40
2017-12-03T18:17:49.712Z,7.30
2017-12-03T18:20:17.638Z,8.50
2017-12-03T18:22:45.320Z,7.70
2017-12-03T18:25:12.958Z,7.78
2017-12-03T18:27:40.589Z,7.33
2017-12-03T18:30:08.265Z,7.77
2017-12-03T18:32:35.947Z,8.50
2017-12-03T18:35:03.594Z,7.00
2017-12-03T18:37:31.488Z,7.20
2017-12-03T18:39:59.271Z,7.60
2017-12-03T18:42:26.997Z,7.00
2017-12-03T18:44:54.645Z,7.00
2017-12-03T18:47:22.346Z,7.77
2017-12-03T18:49:50.081Z,8.05
2017-12-03T18:52:17.760Z,5.90
2017-12-03T18:54:45.469Z,6.87
2017-12-03T18:57:14.286Z,7.78
2017-12-03T18:59:41.949Z,6.35
2017-12-03T19:02:09.673Z,6.23
2017-12-03T19:04:38.124Z,6.20
2017-12-03T19:07:05.798Z,7.50
2017-12-03T19:09:33.549Z,7.17
2017-12-03T19:12:01.192Z,6.37
2017-12-03T19:14:28.851Z,6.70
2017-12-03T19:16:56.529Z,7.20
2017-12-03T19:19:24.286Z,6.40
2017-12-03T19:21:52.027Z,6.80
2017-12-03T19:24:19.903Z,6.73
2017-12-03T19:26:47.668Z,7.70
2017-12-03T19:29:16.765Z,7.20
2017-12-03T19:31:44.482Z,6.70
2017-12-03T19:34:12.214Z,7.20
2017-12-03T19:36:39.876Z,6.53
2017-12-03T19:39:07.569Z,6.10
2017-12-03T19:41:35.421Z,7.10
2017-12-03T19:44:05.291Z,6.57
2017-12-03T19:46:34.688Z,6.95
2017-12-03T19:49:02.385Z,5.90
2017-12-03T19:51:30.853Z,6.00
2017-12-03T19:53:59.265Z,7.00
2017-12-03T19:56:26.995Z,8.50
2017-12-03T20:01:19.024Z,6.05
2017-12-03T20:03:46.638Z,6.30
2017-12-03T20:06:14.518Z,5.57
2017-12-03T20:08:42.310Z,5.45
2017-12-03T20:11:09.954Z,6.43
2017-12-03T20:13:37.638Z,5.83
2017-12-03T20:16:05.282Z,6.70
2017-12-03T20:18:32.983Z,5.93
2017-12-03T20:21:01.442Z,8.37
2017-12-03T20:23:29.146Z,7.03
2017-12-03T20:25:56.835Z,6.90
2017-12-03T20:28:24.556Z,6.27
2017-12-03T20:30:53.068Z,6.33
2017-12-03T20:33:20.701Z,8.23
2017-12-03T20:35:48.661Z,6.70
2017-12-03T20:38:17.162Z,6.68
2017-12-03T20:40:44.855Z,7.13
2017-12-03T20:43:12.492Z,6.23
2017-12-03T20:45:40.190Z,7.35
2017-12-03T20:48:07.821Z,6.53
2017-12-03T20:50:35.549Z,5.03
2017-12-03T20:53:03.951Z,5.28
2017-12-03T20:55:31.574Z,6.13
2017-12-03T20:57:59.250Z,5.68
2017-12-03T21:00:29.733Z,6.83
2017-12-03T21:02:57.352Z,7.00
2017-12-03T21:05:25.050Z,6.50
2017-12-03T21:07:52.677Z,5.10
2017-12-03T21:10:20.391Z,5.30
2017-12-03T21:12:48.036Z,4.90
2017-12-03T21:15:15.753Z,5.43
2017-12-03T21:17:43.444Z,5.10
2017-12-03T21:20:11.073Z,4.60
2017-12-03T21:22:38.760Z,4.10
2017-12-03T21:25:06.414Z,4.32
2017-12-03T21:27:34.051Z,4.80
2017-12-03T21:30:01.862Z,4.90
2017-12-03T21:32:29.529Z,4.40
2017-12-03T21:34:57.177Z,4.60
2017-12-03T21:37:25.141Z,3.83
2017-12-03T21:39:52.826Z,4.37
2017-12-03T21:42:21.817Z,4.60
2017-12-03T21:44:49.497Z,4.18
2017-12-03T21:47:17.135Z,4.47
2017-12-03T21:49:44.789Z,4.60
2017-12-03T21:52:12.445Z,2.97
2017-12-03T21:54:40.105Z,4.78
2017-12-03T21:57:07.793Z,3.65
2017-12-03T21:59:35.452Z,3.85
2017-12-03T22:02:03.127Z,4.53
2017-12-03T22:04:31.506Z,3.90
2017-12-03T22:06:59.928Z,5.20
2017-12-03T22:09:27.542Z,5.20
2017-12-03T22:11:55.165Z,4.10
2017-12-03T22:14:22.825Z,4.10
2017-12-03T22:16:50.482Z,4.15
2017-12-03T22:19:18.106Z,4.97
2017-12-03T22:21:45.764Z,5.10
2017-12-03T22:24:13.534Z,5.20
2017-12-03T22:26:41.202Z,4.00
2017-12-03T22:29:08.817Z,4.60
2017-12-03T22:31:37.514Z,5.47
2017-12-03T22:34:05.950Z,3.80
2017-12-03T22:36:33.607Z,4.00
2017-12-03T22:39:01.265Z,4.67
2017-12-03T22:41:29.174Z,3.90
2017-12-03T22:43:57.602Z,3.93
2017-12-03T22:46:25.261Z,3.67
2017-12-03T22:48:52.901Z,3.77
2017-12-03T22:51:21.447Z,3.53
2017-12-03T22:53:49.879Z,3.77
2017-12-03T22:56:17.488Z,3.85
2017-12-03T22:58:45.551Z,4.10
2017-12-03T23:01:13.390Z,3.17
2017-12-03T23:03:41.074Z,3.57
2017-12-03T23:06:09.784Z,3.50
2017-12-03T23:08:37.399Z,3.40
2017-12-03T23:11:05.062Z,4.40
2017-12-03T23:13:32.819Z,3.83
2017-12-03T23:16:00.434Z,4.10
2017-12-03T23:18:28.046Z,3.93
2017-12-03T23:20:55.693Z,2.67
2017-12-03T23:23:23.343Z,2.00
2017-12-03T23:25:51.068Z,2.60
2017-12-03T23:28:18.738Z,2.37
2017-12-03T23:30:46.460Z,3.37
2017-12-03T23:33:14.149Z,2.60
2017-12-03T23:35:41.837Z,2.35
2017-12-03T23:38:09.474Z,2.90
2017-12-03T23:40:37.132Z,3.20
2017-12-03T23:43:04.858Z,3.35
2017-12-03T23:45:33.298Z,1.97
2017-12-03T23:50:25.995Z,2.40
2017-12-03T23:52:53.650Z,2.55
2017-12-03T23:55:21.596Z,2.83
2017-12-03T23:57:49.360Z,2.55
